Observations for GLASGOW AIRPORT, United Kingdom (EGPF)

EGPF 220950Z AUTO 21011KT 7000 -RA BKN009 OVC015 09/08 Q1003
EGPF 220920Z AUTO 21011KT 9999 -RA BKN009 OVC047 09/08 Q1003
EGPF 220850Z AUTO 22010KT 9999 -RA SCT012 SCT049 09/08 Q1003
EGPF 220820Z AUTO 21008KT 9000 -RA //////TCU 09/08 Q1004
EGPF 220750Z AUTO 22012KT 9000 -RA //////TCU 10/07 Q1004
EGPF 220720Z AUTO 22011KT 9999 //////CB 10/07 Q1004 
EGPF 220650Z AUTO 23006KT 9999 NCD 09/06 Q1004  
EGPF 220620Z AUTO 24005KT 210V280 9999 NCD 08/06 Q1003  
EGPF 220550Z AUTO 23006KT 9999 NCD 07/05 Q1004  
EGPF 220520Z AUTO VRB03KT 9999 NCD 06/04 Q1004  
EGPF 220450Z AUTO 25004KT 9999 NCD 05/03 Q1004  
EGPF 220420Z AUTO VRB02KT 9999 NCD 06/04 Q1004  
EGPF 220350Z AUTO VRB01KT 9999 NCD 06/04 Q1004  
EGPF 220320Z AUTO VRB01KT 9999 BKN049 06/04 Q1005   
EGPF 220250Z AUTO 28003KT 9999 NCD 06/04 Q1005  
EGPF 220220Z AUTO 08001KT 9999 NCD 06/04 Q1006  
EGPF 220150Z AUTO 21002KT 9999 FEW044 06/04 Q1006   
EGPF 220120Z AUTO 19002KT 9999 BKN042 06/04 Q1006   
EGPF 220050Z AUTO 23003KT 9999 FEW045 06/03 Q1007   
EGPF 220020Z AUTO 23003KT 9999 NCD 05/03 Q1007  
EGPF 212350Z AUTO 24003KT 9999 NCD 06/04 Q1008  
EGPF 212320Z AUTO 24004KT 9999 NCD 06/04 Q1008  
EGPF 212250Z AUTO 29001KT 9999 NCD 06/04 Q1009  
EGPF 212220Z AUTO VRB02KT 9999 NCD 09/03 Q1009  
EGPF 212150Z AUTO VRB01KT 9999 NCD 10/03 Q1009  
EGPF 212120Z AUTO VRB03KT 9999 NCD 11/03 Q1009  
EGPF 212050Z AUTO 15004KT 9999 NCD 13/02 Q1010  
EGPF 212020Z AUTO 16007KT 9999 NCD 13/02 Q1010  
EGPF 211950Z AUTO 16006KT 9999 NCD 14/02 Q1011  
EGPF 211920Z AUTO 16006KT 140V200 9999 NCD 15/03 Q1011  
EGPF 211850Z AUTO 18009KT 9999 NCD 16/03 Q1011  
EGPF 211820Z AUTO 17011KT 9999 NCD 17/02 Q1011  
EGPF 211750Z AUTO 17010KT 9999 NCD 18/03 Q1012  
EGPF 211720Z AUTO 16011KT 9999 NCD 18/05 Q1012  
EGPF 211650Z AUTO 18010KT 150V220 9999 NCD 19/05 Q1013  
EGPF 211620Z AUTO 17011KT 9999 NCD 19/04 Q1013  
EGPF 211550Z AUTO 18010KT 9999 NCD 19/04 Q1014  
EGPF 211520Z AUTO 17010KT 9999 NCD 19/05 Q1014  
EGPF 211450Z AUTO 15009KT 090V210 9999 NCD 18/05 Q1015  
EGPF 211420Z AUTO VRB06KT 9999 SCT048 18/06 Q1016   
EGPF 211350Z AUTO 18007KT 150V220 9999 BKN045 17/07 Q1017   
EGPF 211320Z AUTO 22008KT 160V260 9999 SCT043 16/07 Q1017   
EGPF 211250Z AUTO 19005KT 140V220 9999 BKN041 16/07 Q1018   
EGPF 211220Z AUTO 23005KT 180V250 9999 BKN038 15/07 Q1018   
EGPF 211150Z AUTO 22006KT 190V250 9999 SCT036 BKN045 15/07 Q1018
EGPF 211120Z AUTO 19010KT 150V230 9999 SCT035 BKN042 16/08 Q1019
EGPF 211050Z AUTO 21008KT 150V260 9999 SCT035 BKN049 15/07 Q1019
EGPF 211020Z AUTO 27004KT 190V320 9999 FEW035 BKN048 14/07 Q1020
EGPF 210950Z AUTO VRB02KT 9999 BKN047 13/07 Q1020   
EGPF 210920Z AUTO VRB02KT 9999 NCD 13/07 Q1020